createdAt,value
2018-05-17T00:01:45.762Z,26.63
2018-05-17T00:04:13.275Z,27.50
2018-05-17T00:06:40.781Z,28.50
2018-05-17T00:09:08.311Z,22.93
2018-05-17T00:11:36.295Z,24.80
2018-05-17T00:14:03.889Z,30.57
2018-05-17T00:16:31.383Z,34.20
2018-05-17T00:18:59.308Z,33.30
2018-05-17T00:21:26.798Z,29.57
2018-05-17T00:23:54.359Z,25.97
2018-05-17T00:26:21.910Z,29.87
2018-05-17T00:28:49.490Z,23.70
2018-05-17T00:31:16.999Z,30.20
2018-05-17T00:33:44.890Z,27.20
2018-05-17T00:36:12.821Z,31.43
2018-05-17T00:38:40.314Z,25.53
2018-05-17T00:41:07.839Z,26.13
2018-05-17T00:43:35.341Z,30.47
2018-05-17T00:46:03.259Z,29.47
2018-05-17T00:48:30.755Z,19.33
2018-05-17T00:50:58.268Z,23.77
2018-05-17T00:53:31.732Z,27.20
2018-05-17T00:55:59.703Z,28.87
2018-05-17T00:58:27.227Z,30.87
2018-05-17T01:00:54.802Z,25.40
2018-05-17T01:03:22.319Z,32.57
2018-05-17T01:05:49.819Z,29.23
2018-05-17T01:08:17.326Z,31.60
2018-05-17T01:10:44.814Z,28.47
2018-05-17T01:13:12.743Z,22.48
2018-05-17T01:15:40.238Z,27.57
2018-05-17T01:18:07.739Z,26.03
2018-05-17T01:20:35.255Z,26.97
2018-05-17T01:23:03.234Z,18.73
2018-05-17T01:25:30.777Z,23.15
2018-05-17T01:27:58.288Z,25.62
2018-05-17T01:30:25.812Z,28.40
2018-05-17T01:32:53.325Z,22.08
2018-05-17T01:35:20.851Z,23.98
2018-05-17T01:38:00.403Z,23.85
2018-05-17T01:40:27.913Z,20.20
2018-05-17T01:42:55.810Z,20.48
2018-05-17T01:45:23.813Z,20.05
2018-05-17T01:47:51.820Z,18.43
2018-05-17T01:50:19.366Z,15.43
2018-05-17T01:52:46.887Z,31.75
2018-05-17T01:55:14.395Z,28.98
2018-05-17T01:57:41.928Z,20.45
2018-05-17T02:00:09.836Z,22.15
2018-05-17T02:02:37.737Z,25.98
2018-05-17T02:05:05.296Z,16.67
2018-05-17T02:07:32.812Z,14.05
2018-05-17T02:10:00.311Z,22.48
2018-05-17T02:12:27.841Z,20.25
2018-05-17T02:14:55.431Z,18.23
2018-05-17T02:17:22.936Z,18.67
2018-05-17T02:19:50.506Z,18.42
2018-05-17T02:22:18.400Z,13.88
2018-05-17T02:24:46.316Z,26.50
2018-05-17T02:27:13.809Z,28.40
2018-05-17T02:29:41.323Z,17.35
2018-05-17T02:32:08.819Z,18.73
2018-05-17T02:34:36.338Z,16.02
2018-05-17T02:37:03.840Z,25.83
2018-05-17T02:39:31.368Z,22.42
2018-05-17T02:41:58.861Z,18.58
2018-05-17T02:44:26.455Z,24.12
2018-05-17T02:46:53.967Z,24.67
2018-05-17T02:49:21.475Z,22.90
2018-05-17T02:51:49.008Z,17.33
2018-05-17T02:54:16.505Z,21.33
2018-05-17T02:56:44.421Z,26.65
2018-05-17T02:59:11.928Z,23.25
2018-05-17T03:01:39.447Z,21.95
2018-05-17T03:04:06.938Z,24.17
2018-05-17T03:06:34.941Z,33.45
2018-05-17T03:09:02.846Z,19.70
2018-05-17T03:11:30.367Z,29.35
2018-05-17T03:13:57.859Z,23.23
2018-05-17T03:16:25.454Z,24.15
2018-05-17T03:18:53.046Z,33.35
2018-05-17T03:21:20.538Z,25.60
2018-05-17T03:23:48.049Z,25.85
2018-05-17T03:26:15.550Z,31.27
2018-05-17T03:28:43.087Z,25.12
2018-05-17T03:31:10.675Z,25.77
2018-05-17T03:33:38.597Z,32.47
2018-05-17T03:36:06.081Z,21.75
2018-05-17T03:38:33.587Z,30.35
2018-05-17T03:41:01.118Z,31.02
2018-05-17T03:43:28.631Z,26.55
2018-05-17T03:45:56.130Z,35.10
2018-05-17T03:48:23.660Z,42.40
2018-05-17T03:50:51.215Z,27.90
2018-05-17T03:53:18.733Z,31.48
2018-05-17T03:55:46.247Z,34.78
2018-05-17T03:58:13.745Z,39.10
2018-05-17T04:00:53.272Z,28.35
2018-05-17T04:03:32.729Z,33.05
2018-05-17T04:06:12.108Z,30.85
2018-05-17T04:08:40.119Z,35.72
2018-05-17T04:11:07.539Z,31.52
2018-05-17T04:13:35.034Z,22.30
2018-05-17T04:16:02.547Z,26.60
2018-05-17T04:18:30.444Z,35.22
2018-05-17T04:20:58.356Z,23.12
2018-05-17T04:23:25.841Z,29.92
2018-05-17T04:25:54.335Z,30.62
2018-05-17T04:28:22.222Z,26.80
2018-05-17T04:30:50.197Z,33.97
2018-05-17T04:33:17.695Z,35.95
2018-05-17T04:35:45.198Z,25.95
2018-05-17T04:38:13.087Z,26.62
2018-05-17T04:40:40.999Z,32.17
2018-05-17T04:43:08.543Z,27.75
2018-05-17T04:45:36.123Z,22.10
2018-05-17T04:48:03.623Z,26.58
2018-05-17T04:50:31.608Z,32.67
2018-05-17T04:52:59.622Z,28.92
2018-05-17T04:55:27.534Z,22.20
2018-05-17T04:57:55.018Z,26.60
2018-05-17T05:00:22.524Z,28.62
2018-05-17T05:02:50.036Z,26.58
2018-05-17T05:05:17.627Z,25.85
2018-05-17T05:07:45.147Z,25.65
2018-05-17T05:10:12.692Z,42.80
2018-05-17T05:12:40.283Z,32.60
2018-05-17T05:15:07.788Z,33.88
2018-05-17T05:17:35.306Z,28.48
2018-05-17T05:20:02.836Z,33.78
2018-05-17T05:22:30.828Z,37.60
2018-05-17T05:24:58.336Z,33.13
2018-05-17T05:27:25.894Z,36.28
2018-05-17T05:29:53.479Z,34.75
2018-05-17T05:32:21.068Z,36.83
2018-05-17T05:34:48.583Z,39.63
2018-05-17T05:37:16.131Z,41.60
2018-05-17T05:39:43.651Z,32.58
2018-05-17T05:42:11.206Z,29.92
2018-05-17T05:44:39.130Z,37.15
2018-05-17T05:47:06.636Z,36.30
2018-05-17T05:49:34.252Z,36.45
2018-05-17T05:52:01.749Z,27.10
2018-05-17T05:54:29.264Z,29.25
2018-05-17T05:56:56.782Z,33.17
2018-05-17T05:59:24.290Z,31.92
2018-05-17T06:01:51.794Z,32.13
2018-05-17T06:04:19.714Z,42.03
2018-05-17T06:06:47.254Z,33.47
2018-05-17T06:09:14.751Z,29.27
2018-05-17T06:11:42.662Z,27.83
2018-05-17T06:14:10.177Z,38.85
2018-05-17T06:16:37.690Z,20.40
2018-05-17T06:19:05.187Z,32.00
2018-05-17T06:21:33.180Z,28.15
2018-05-17T06:24:01.091Z,32.20
2018-05-17T06:26:29.003Z,36.08
2018-05-17T06:28:56.507Z,30.23
2018-05-17T06:31:24.035Z,33.72
2018-05-17T06:33:52.039Z,35.17
2018-05-17T06:36:19.606Z,29.40
2018-05-17T06:38:47.204Z,33.85
2018-05-17T06:41:15.191Z,33.22
2018-05-17T06:43:42.801Z,30.62
2018-05-17T06:46:10.323Z,34.85
2018-05-17T06:48:37.839Z,35.33
2018-05-17T06:51:05.360Z,33.05
2018-05-17T06:53:32.863Z,32.25
2018-05-17T06:56:00.387Z,37.72
2018-05-17T06:58:27.974Z,34.63
2018-05-17T07:00:55.545Z,36.17
2018-05-17T07:03:23.016Z,34.28
2018-05-17T07:05:50.630Z,34.65
2018-05-17T07:08:18.228Z,36.80
2018-05-17T07:10:46.143Z,43.33
2018-05-17T07:13:13.637Z,44.40
2018-05-17T07:15:41.188Z,43.42
2018-05-17T07:18:09.195Z,45.15
2018-05-17T07:20:36.621Z,34.83
2018-05-17T07:23:04.123Z,39.03
2018-05-17T07:25:31.626Z,38.70
2018-05-17T07:27:59.534Z,30.87
2018-05-17T07:30:27.438Z,32.87
2018-05-17T07:32:55.407Z,27.70
2018-05-17T07:35:22.933Z,28.23
2018-05-17T07:37:50.434Z,33.08
2018-05-17T07:40:17.960Z,32.80
2018-05-17T07:42:45.534Z,30.80
2018-05-17T07:45:13.047Z,33.40
2018-05-17T07:47:40.575Z,32.73
2018-05-17T07:50:08.070Z,31.30
2018-05-17T07:52:35.677Z,25.87
2018-05-17T07:55:03.578Z,29.10
2018-05-17T07:57:31.550Z,30.63
2018-05-17T07:59:59.033Z,28.20
2018-05-17T08:02:26.574Z,23.00
2018-05-17T08:04:54.120Z,24.30
2018-05-17T08:07:22.099Z,21.37
2018-05-17T08:09:49.585Z,28.60
2018-05-17T08:12:17.095Z,25.57
2018-05-17T08:14:44.597Z,31.60
2018-05-17T08:17:12.135Z,22.30
2018-05-17T08:19:39.635Z,23.00
2018-05-17T08:22:07.547Z,24.10
2018-05-17T08:24:35.090Z,24.90
2018-05-17T08:27:02.674Z,28.17
2018-05-17T08:29:30.166Z,30.97
2018-05-17T08:31:57.687Z,28.53
2018-05-17T08:34:25.179Z,30.00
2018-05-17T08:36:52.691Z,24.87
2018-05-17T08:39:20.192Z,25.77
2018-05-17T08:41:47.778Z,20.47
2018-05-17T08:44:15.261Z,24.00
2018-05-17T08:46:42.842Z,30.97
2018-05-17T08:49:10.356Z,14.60
2018-05-17T08:51:38.332Z,16.63
2018-05-17T08:54:05.817Z,26.60
2018-05-17T08:56:33.751Z,18.73
2018-05-17T08:59:01.303Z,29.23
2018-05-17T09:01:29.211Z,21.17
2018-05-17T09:03:56.703Z,21.67
2018-05-17T09:06:24.237Z,18.33
2018-05-17T09:08:51.746Z,21.40
2018-05-17T09:11:19.726Z,17.37
2018-05-17T09:13:47.318Z,16.60
2018-05-17T09:16:15.294Z,14.13
2018-05-17T09:18:42.793Z,19.50
2018-05-17T09:21:10.686Z,19.47
2018-05-17T09:23:38.582Z,33.10
2018-05-17T09:26:06.470Z,24.10
2018-05-17T09:28:34.383Z,18.40
2018-05-17T09:31:01.883Z,24.47
2018-05-17T09:33:29.394Z,28.63
2018-05-17T09:35:56.892Z,25.67
2018-05-17T09:38:24.404Z,23.40
2018-05-17T09:40:51.917Z,20.00
2018-05-17T09:43:19.443Z,21.00
2018-05-17T09:45:47.063Z,24.90
2018-05-17T09:48:14.590Z,22.00
2018-05-17T09:50:42.078Z,22.13
2018-05-17T09:53:09.601Z,23.07
2018-05-17T09:55:37.489Z,25.43
2018-05-17T09:58:05.475Z,24.70
2018-05-17T10:00:33.942Z,21.83
2018-05-17T10:03:01.456Z,19.70
2018-05-17T10:05:28.954Z,20.70
2018-05-17T10:07:56.854Z,19.13
2018-05-17T10:10:24.752Z,23.20
2018-05-17T10:12:52.274Z,21.47
2018-05-17T10:15:19.774Z,15.90
2018-05-17T10:17:47.287Z,21.87
2018-05-17T10:20:15.176Z,18.43
2018-05-17T10:22:43.083Z,11.90
2018-05-17T10:25:10.968Z,19.80
2018-05-17T10:27:38.942Z,21.87
2018-05-17T10:30:06.425Z,16.93
2018-05-17T10:32:33.945Z,16.60
2018-05-17T10:35:01.458Z,20.43
2018-05-17T10:37:28.951Z,22.40
2018-05-17T10:39:56.467Z,28.67
2018-05-17T10:42:23.958Z,32.57
2018-05-17T10:44:51.867Z,30.27
2018-05-17T10:47:19.844Z,30.30
2018-05-17T10:49:47.752Z,30.03
2018-05-17T10:52:15.650Z,26.60
2018-05-17T10:54:43.216Z,25.43
2018-05-17T10:57:11.102Z,21.73
2018-05-17T10:59:38.682Z,33.00
2018-05-17T11:02:06.175Z,25.47
2018-05-17T11:04:34.079Z,28.20
2018-05-17T11:07:01.991Z,26.90
2018-05-17T11:09:29.503Z,27.33
2018-05-17T11:11:57.014Z,22.27
2018-05-17T11:14:24.605Z,26.83
2018-05-17T11:16:52.600Z,25.63
2018-05-17T11:19:20.512Z,21.23
2018-05-17T11:21:48.409Z,17.43
2018-05-17T11:24:15.968Z,20.50
2018-05-17T11:26:43.458Z,17.90
2018-05-17T11:29:11.354Z,15.27
2018-05-17T11:31:39.239Z,17.27
2018-05-17T11:34:06.753Z,18.80
2018-05-17T11:36:34.256Z,16.00
2018-05-17T11:39:01.773Z,17.23
2018-05-17T11:41:29.273Z,21.40
2018-05-17T11:43:57.175Z,21.90
2018-05-17T11:46:25.059Z,18.97
2018-05-17T11:48:52.953Z,22.33
2018-05-17T11:51:20.834Z,27.23
2018-05-17T11:53:48.423Z,14.37
2018-05-17T11:56:16.003Z,19.77
2018-05-17T11:58:43.615Z,19.77
2018-05-17T12:01:11.495Z,22.83
2018-05-17T12:03:39.016Z,18.17
2018-05-17T12:06:06.507Z,25.63
2018-05-17T12:08:34.035Z,21.03
2018-05-17T12:11:01.548Z,16.30
2018-05-17T12:13:29.101Z,21.50
2018-05-17T12:15:56.683Z,24.50
2018-05-17T12:18:24.272Z,23.07
2018-05-17T12:20:51.809Z,22.23
2018-05-17T12:23:19.299Z,17.53
2018-05-17T12:25:46.842Z,19.00
2018-05-17T12:28:14.721Z,19.20
2018-05-17T12:30:42.295Z,20.33
2018-05-17T12:33:09.788Z,22.53
2018-05-17T12:35:37.289Z,24.00
2018-05-17T12:38:05.171Z,24.13
2018-05-17T12:40:33.152Z,18.87
2018-05-17T12:43:00.736Z,19.50
2018-05-17T12:45:28.247Z,15.40
2018-05-17T12:47:55.735Z,17.53
2018-05-17T12:50:23.288Z,13.40
2018-05-17T12:52:50.765Z,20.63
2018-05-17T12:55:18.272Z,23.17
2018-05-17T12:57:46.156Z,19.10
2018-05-17T13:00:14.068Z,26.90
2018-05-17T13:02:41.555Z,20.60
2018-05-17T13:05:13.695Z,22.40
2018-05-17T13:07:41.186Z,25.40
2018-05-17T13:10:08.802Z,23.87
2018-05-17T13:12:36.674Z,19.10
2018-05-17T13:15:04.261Z,19.00
2018-05-17T13:17:32.149Z,24.63
2018-05-17T13:19:59.723Z,18.73
2018-05-17T13:22:27.214Z,22.77
2018-05-17T13:24:54.870Z,21.33
2018-05-17T13:27:22.703Z,22.07
2018-05-17T13:29:50.607Z,20.83
2018-05-17T13:32:18.491Z,25.27
2018-05-17T13:34:46.471Z,19.90
2018-05-17T13:37:14.380Z,26.07
2018-05-17T13:39:42.261Z,26.47
2018-05-17T13:42:09.772Z,19.13
2018-05-17T13:44:37.260Z,19.97
2018-05-17T13:47:04.784Z,29.20
2018-05-17T13:49:32.287Z,21.20
2018-05-17T13:51:59.798Z,18.50
2018-05-17T13:54:27.675Z,15.03
2018-05-17T13:56:55.179Z,19.87
2018-05-17T13:59:22.736Z,15.90
2018-05-17T14:01:50.272Z,16.00
2018-05-17T14:04:17.799Z,21.07
2018-05-17T14:06:45.312Z,20.77
2018-05-17T14:09:12.816Z,19.57
2018-05-17T14:11:40.328Z,20.00
2018-05-17T14:14:07.817Z,19.70
2018-05-17T14:16:35.416Z,16.10
2018-05-17T14:19:02.916Z,15.43
2018-05-17T14:21:30.886Z,16.73
2018-05-17T14:23:58.392Z,13.00
2018-05-17T14:26:26.366Z,19.87
2018-05-17T14:28:53.970Z,21.20
2018-05-17T14:31:21.878Z,18.90
2018-05-17T14:33:49.388Z,19.50
2018-05-17T14:36:16.909Z,22.07
2018-05-17T14:38:44.560Z,13.00
2018-05-17T14:41:12.436Z,19.90
2018-05-17T14:43:39.987Z,20.23
2018-05-17T14:46:08.006Z,17.83
2018-05-17T14:48:35.872Z,18.47
2018-05-17T14:51:03.451Z,20.10
2018-05-17T14:53:30.963Z,23.73
2018-05-17T14:55:58.927Z,18.27
2018-05-17T14:58:26.412Z,17.03
2018-05-17T15:00:53.999Z,16.93
2018-05-17T15:03:21.505Z,21.33
2018-05-17T15:05:49.479Z,20.40
2018-05-17T15:08:17.054Z,25.43
2018-05-17T15:10:44.534Z,20.30
2018-05-17T15:13:12.131Z,20.97
2018-05-17T15:15:39.623Z,20.10
2018-05-17T15:18:07.518Z,19.63
2018-05-17T15:20:35.399Z,22.20
2018-05-17T15:23:02.907Z,22.97
2018-05-17T15:25:30.874Z,29.63
2018-05-17T15:27:58.375Z,16.63
2018-05-17T15:30:26.259Z,17.53
2018-05-17T15:32:53.833Z,22.80
2018-05-17T15:35:21.313Z,12.83
2018-05-17T15:37:48.819Z,18.10
2018-05-17T15:40:16.796Z,20.00
2018-05-17T15:42:44.298Z,18.80
2018-05-17T15:45:12.179Z,23.03
2018-05-17T15:47:40.086Z,18.90
2018-05-17T15:50:08.049Z,18.87
2018-05-17T15:52:35.558Z,18.53
2018-05-17T15:55:03.531Z,17.70
2018-05-17T15:57:31.039Z,16.07
2018-05-17T15:59:58.924Z,18.47
2018-05-17T16:02:26.814Z,26.47
2018-05-17T16:04:54.699Z,19.57
2018-05-17T16:07:22.611Z,16.40
2018-05-17T16:09:50.157Z,27.10
2018-05-17T16:12:17.766Z,22.23
2018-05-17T16:14:45.882Z,18.77
2018-05-17T16:17:13.659Z,18.00
2018-05-17T16:19:41.539Z,19.17
2018-05-17T16:22:09.223Z,14.60
2018-05-17T16:24:36.711Z,20.47
2018-05-17T16:27:04.635Z,16.97
2018-05-17T16:29:32.179Z,20.67
2018-05-17T16:31:59.687Z,13.70
2018-05-17T16:34:27.175Z,19.90
2018-05-17T16:36:54.697Z,16.50
2018-05-17T16:39:22.231Z,21.30
2018-05-17T16:41:50.311Z,13.70
2018-05-17T16:44:17.823Z,12.23
2018-05-17T16:46:45.325Z,14.53
2018-05-17T16:49:12.835Z,18.23
2018-05-17T16:51:40.323Z,19.93
2018-05-17T16:54:08.006Z,13.43
2018-05-17T16:56:35.829Z,14.50
2018-05-17T16:59:03.730Z,15.90
2018-05-17T17:01:31.706Z,17.50
2018-05-17T17:03:59.699Z,16.13
2018-05-17T17:06:27.275Z,16.90
2018-05-17T17:08:54.819Z,14.00
2018-05-17T17:11:22.296Z,13.67
2018-05-17T17:13:49.826Z,14.03
2018-05-17T17:16:17.331Z,24.20
2018-05-17T17:18:45.238Z,14.77
2018-05-17T17:21:12.735Z,18.53
2018-05-17T17:23:40.271Z,17.07
2018-05-17T17:26:07.979Z,18.13
2018-05-17T17:28:35.893Z,14.00
2018-05-17T17:31:03.391Z,16.20
2018-05-17T17:33:30.919Z,19.67
2018-05-17T17:35:58.416Z,16.93
2018-05-17T17:38:26.322Z,18.50
2018-05-17T17:40:54.228Z,17.67
2018-05-17T17:43:21.848Z,19.63
2018-05-17T17:45:49.379Z,17.83
2018-05-17T17:48:17.311Z,16.00
2018-05-17T17:50:46.725Z,24.20
2018-05-17T17:53:14.291Z,26.53
2018-05-17T17:55:41.782Z,18.13
2018-05-17T17:58:09.291Z,15.53
2018-05-17T18:00:36.815Z,18.87
2018-05-17T18:03:04.321Z,22.80
2018-05-17T18:05:31.957Z,16.50
2018-05-17T18:07:59.594Z,22.80
2018-05-17T18:10:27.512Z,15.97
2018-05-17T18:12:55.049Z,19.40
2018-05-17T18:15:22.560Z,21.37
2018-05-17T18:17:51.031Z,22.87
2018-05-17T18:20:18.542Z,22.63
2018-05-17T18:22:46.435Z,21.83
2018-05-17T18:25:14.431Z,16.90
2018-05-17T18:27:42.406Z,19.27
2018-05-17T18:30:10.044Z,18.27
2018-05-17T18:32:37.591Z,22.67
2018-05-17T18:35:05.574Z,22.70
2018-05-17T18:37:33.496Z,22.30
2018-05-17T18:40:01.035Z,21.33
2018-05-17T18:42:28.523Z,24.10
2018-05-17T18:44:56.169Z,24.67
2018-05-17T18:47:23.584Z,18.90
2018-05-17T18:49:51.087Z,19.50
2018-05-17T18:52:19.042Z,22.20
2018-05-17T18:54:46.655Z,29.30
2018-05-17T18:57:14.151Z,21.27
2018-05-17T18:59:42.063Z,21.60
2018-05-17T19:02:10.040Z,24.57
2018-05-17T19:04:37.492Z,16.03
2018-05-17T19:07:04.991Z,23.83
2018-05-17T19:09:32.512Z,27.03
2018-05-17T19:12:00.036Z,21.23
2018-05-17T19:14:27.540Z,31.63
2018-05-17T19:16:55.031Z,15.43
2018-05-17T19:19:23.013Z,24.53
2018-05-17T19:21:50.503Z,17.87
2018-05-17T19:24:18.187Z,20.13
2018-05-17T19:26:45.769Z,22.30
2018-05-17T19:29:13.369Z,17.23
2018-05-17T19:31:40.903Z,25.43
2018-05-17T19:34:08.398Z,17.30
2018-05-17T19:36:35.887Z,28.27
2018-05-17T19:39:03.392Z,22.90
2018-05-17T19:41:30.911Z,17.23
2018-05-17T19:43:58.413Z,28.80
2018-05-17T19:46:25.921Z,19.83
2018-05-17T19:48:53.415Z,22.30
2018-05-17T19:51:20.923Z,22.57
2018-05-17T19:53:48.810Z,24.63
2018-05-17T19:56:16.328Z,24.57
2018-05-17T19:58:43.823Z,27.03
2018-05-17T20:01:11.355Z,19.93
2018-05-17T20:03:38.855Z,22.67
2018-05-17T20:06:06.829Z,22.03
2018-05-17T20:08:34.318Z,18.60
2018-05-17T20:11:01.831Z,24.67
2018-05-17T20:13:29.330Z,22.97
2018-05-17T20:15:56.834Z,26.00
2018-05-17T20:18:24.318Z,20.20
2018-05-17T20:20:51.930Z,25.50
2018-05-17T20:23:19.427Z,22.03
2018-05-17T20:25:47.414Z,23.07
2018-05-17T20:28:14.930Z,21.67
2018-05-17T20:30:42.430Z,29.73
2018-05-17T20:33:09.963Z,17.00
2018-05-17T20:35:37.556Z,21.83
2018-05-17T20:38:05.059Z,22.57
2018-05-17T20:40:32.626Z,23.47
2018-05-17T20:43:00.601Z,29.00
2018-05-17T20:45:28.222Z,27.87
2018-05-17T20:47:56.218Z,18.30
2018-05-17T20:50:23.722Z,18.40
2018-05-17T20:52:51.236Z,23.80
2018-05-17T20:55:18.756Z,24.37
2018-05-17T20:57:46.353Z,23.30
2018-05-17T21:00:14.323Z,19.37
2018-05-17T21:02:41.915Z,15.90
2018-05-17T21:05:09.398Z,20.67
2018-05-17T21:07:36.974Z,25.17
2018-05-17T21:10:04.463Z,20.43
2018-05-17T21:12:31.982Z,22.53
2018-05-17T21:14:59.523Z,20.60
2018-05-17T21:17:27.115Z,19.80
2018-05-17T21:19:54.616Z,24.10
2018-05-17T21:22:22.514Z,21.70
2018-05-17T21:24:50.406Z,24.10
2018-05-17T21:27:18.366Z,22.77
2018-05-17T21:29:45.821Z,19.80
2018-05-17T21:32:13.331Z,17.93
2018-05-17T21:34:40.836Z,24.23
2018-05-17T21:37:08.343Z,25.70
2018-05-17T21:39:35.842Z,17.60
2018-05-17T21:42:03.387Z,24.90
2018-05-17T21:44:31.284Z,19.07
2018-05-17T21:46:59.258Z,27.23
2018-05-17T21:49:26.749Z,18.17
2018-05-17T21:51:54.663Z,32.10
2018-05-17T21:54:22.542Z,19.90
2018-05-17T21:56:50.452Z,23.13
2018-05-17T21:59:22.886Z,18.13
2018-05-17T22:01:50.390Z,31.47
2018-05-17T22:04:17.879Z,23.57
2018-05-17T22:06:45.798Z,22.00
2018-05-17T22:09:13.690Z,23.40
2018-05-17T22:11:41.678Z,17.08
2018-05-17T22:14:09.566Z,19.33
2018-05-17T22:16:37.079Z,24.23
2018-05-17T22:19:04.622Z,25.48
2018-05-17T22:21:32.140Z,25.48
2018-05-17T22:23:59.700Z,23.35
2018-05-17T22:26:27.695Z,27.77
2018-05-17T22:28:55.704Z,21.15
2018-05-17T22:31:23.595Z,26.23
2018-05-17T22:33:51.508Z,32.97
2018-05-17T22:36:19.007Z,28.35
2018-05-17T22:38:46.523Z,22.50
2018-05-17T22:41:14.023Z,23.73
2018-05-17T22:43:41.540Z,18.25
2018-05-17T22:46:09.043Z,24.42
2018-05-17T22:48:36.562Z,33.33
2018-05-17T22:51:04.085Z,20.98
2018-05-17T22:53:31.662Z,23.40
2018-05-17T22:55:59.233Z,26.58
2018-05-17T22:58:30.762Z,29.98
2018-05-17T23:00:58.263Z,26.45
2018-05-17T23:03:25.783Z,27.70
2018-05-17T23:05:53.770Z,32.50
2018-05-17T23:08:21.763Z,23.10
2018-05-17T23:10:49.659Z,25.65
2018-05-17T23:13:17.576Z,23.85
2018-05-17T23:15:45.070Z,30.55
2018-05-17T23:18:12.592Z,24.00
2018-05-17T23:20:40.091Z,25.65
2018-05-17T23:23:07.614Z,24.33
2018-05-17T23:25:35.158Z,22.67
2018-05-17T23:28:02.755Z,24.23
2018-05-17T23:30:30.653Z,27.75
2018-05-17T23:32:58.572Z,23.77
2018-05-17T23:35:26.915Z,24.42
2018-05-17T23:37:54.426Z,23.48
2018-05-17T23:40:33.736Z,25.95
2018-05-17T23:43:01.267Z,21.25
2018-05-17T23:45:28.777Z,23.77
2018-05-17T23:47:56.305Z,19.98
2018-05-17T23:50:23.815Z,26.17
2018-05-17T23:52:51.315Z,23.30
2018-05-17T23:55:19.247Z,28.38
2018-05-17T23:57:46.756Z,24.40
